sensor_id;sensor_type;location;lat;lon;timestamp;pressure;altitude;pressure_sealevel;temperature;humidity
79048;BME280;68680;50.764;6.120;2024-03-08T00:02:22;99413.72;;;3.67;78.25
79048;BME280;68680;50.764;6.120;2024-03-08T00:04:47;99416.03;;;3.70;77.65
79048;BME280;68680;50.764;6.120;2024-03-08T00:07:15;99408.00;;;3.63;78.64
79048;BME280;68680;50.764;6.120;2024-03-08T00:09:40;99409.28;;;3.53;78.94
79048;BME280;68680;50.764;6.120;2024-03-08T00:12:07;99409.44;;;3.51;79.01
79048;BME280;68680;50.764;6.120;2024-03-08T00:14:33;99405.06;;;3.44;79.68
79048;BME280;68680;50.764;6.120;2024-03-08T00:16:58;99404.56;;;3.48;79.38
79048;BME280;68680;50.764;6.120;2024-03-08T00:19:24;99403.63;;;3.41;79.15
79048;BME280;68680;50.764;6.120;2024-03-08T00:21:50;99407.63;;;3.37;79.87
79048;BME280;68680;50.764;6.120;2024-03-08T00:24:17;99399.34;;;3.40;79.27
79048;BME280;68680;50.764;6.120;2024-03-08T00:26:43;99398.13;;;3.28;79.66
79048;BME280;68680;50.764;6.120;2024-03-08T00:29:08;99395.31;;;3.29;80.27
79048;BME280;68680;50.764;6.120;2024-03-08T00:31:34;99393.41;;;3.38;79.73
79048;BME280;68680;50.764;6.120;2024-03-08T00:34:00;99388.88;;;3.32;80.42
79048;BME280;68680;50.764;6.120;2024-03-08T00:36:26;99389.34;;;3.36;79.54
79048;BME280;68680;50.764;6.120;2024-03-08T00:38:51;99387.97;;;3.25;80.26
79048;BME280;68680;50.764;6.120;2024-03-08T00:41:18;99384.13;;;3.27;80.37
79048;BME280;68680;50.764;6.120;2024-03-08T00:43:44;99388.53;;;3.35;79.86
79048;BME280;68680;50.764;6.120;2024-03-08T00:46:10;99381.59;;;3.34;79.47
79048;BME280;68680;50.764;6.120;2024-03-08T00:48:36;99384.06;;;3.36;80.15
79048;BME280;68680;50.764;6.120;2024-03-08T00:51:02;99381.50;;;3.27;81.16
79048;BME280;68680;50.764;6.120;2024-03-08T00:53:27;99374.78;;;3.25;79.40
79048;BME280;68680;50.764;6.120;2024-03-08T00:55:53;99367.50;;;3.27;79.18
79048;BME280;68680;50.764;6.120;2024-03-08T00:58:20;99379.34;;;3.31;79.98
79048;BME280;68680;50.764;6.120;2024-03-08T01:00:46;99370.97;;;3.27;79.50
79048;BME280;68680;50.764;6.120;2024-03-08T01:03:12;99372.59;;;3.28;79.78
79048;BME280;68680;50.764;6.120;2024-03-08T01:05:37;99376.44;;;3.26;79.75
79048;BME280;68680;50.764;6.120;2024-03-08T01:08:04;99369.69;;;3.23;79.18
79048;BME280;68680;50.764;6.120;2024-03-08T01:10:30;99372.03;;;3.18;80.00
79048;BME280;68680;50.764;6.120;2024-03-08T01:12:56;99371.22;;;3.18;80.69
79048;BME280;68680;50.764;6.120;2024-03-08T01:15:23;99373.03;;;3.17;79.50
79048;BME280;68680;50.764;6.120;2024-03-08T01:17:49;99363.75;;;3.21;79.48
79048;BME280;68680;50.764;6.120;2024-03-08T01:20:15;99366.41;;;3.21;79.54
79048;BME280;68680;50.764;6.120;2024-03-08T01:22:41;99367.94;;;3.16;80.19
79048;BME280;68680;50.764;6.120;2024-03-08T01:25:07;99362.03;;;3.14;79.58
79048;BME280;68680;50.764;6.120;2024-03-08T01:27:33;99359.41;;;3.14;79.86
79048;BME280;68680;50.764;6.120;2024-03-08T01:29:59;99355.13;;;3.13;80.54
79048;BME280;68680;50.764;6.120;2024-03-08T01:32:26;99351.50;;;3.14;79.80
79048;BME280;68680;50.764;6.120;2024-03-08T01:34:52;99346.84;;;3.16;80.31
79048;BME280;68680;50.764;6.120;2024-03-08T01:37:17;99349.88;;;3.13;80.37
79048;BME280;68680;50.764;6.120;2024-03-08T01:39:43;99340.56;;;3.02;81.43
79048;BME280;68680;50.764;6.120;2024-03-08T01:42:09;99339.81;;;2.94;80.57
79048;BME280;68680;50.764;6.120;2024-03-08T01:44:35;99334.31;;;2.80;81.53
79048;BME280;68680;50.764;6.120;2024-03-08T01:47:01;99337.22;;;2.85;81.64
79048;BME280;68680;50.764;6.120;2024-03-08T01:49:28;99339.88;;;2.85;80.71
79048;BME280;68680;50.764;6.120;2024-03-08T01:51:55;99336.78;;;2.82;82.02
79048;BME280;68680;50.764;6.120;2024-03-08T01:54:21;99326.41;;;2.80;82.05
79048;BME280;68680;50.764;6.120;2024-03-08T01:56:48;99331.78;;;2.72;82.30
79048;BME280;68680;50.764;6.120;2024-03-08T01:59:14;99332.09;;;2.69;82.74
79048;BME280;68680;50.764;6.120;2024-03-08T02:01:41;99323.09;;;2.64;82.02
79048;BME280;68680;50.764;6.120;2024-03-08T02:04:07;99325.63;;;2.57;82.58
79048;BME280;68680;50.764;6.120;2024-03-08T02:06:34;99316.47;;;2.45;83.90
79048;BME280;68680;50.764;6.120;2024-03-08T02:09:01;99311.91;;;2.39;83.65
79048;BME280;68680;50.764;6.120;2024-03-08T02:11:27;99314.16;;;2.50;83.63
79048;BME280;68680;50.764;6.120;2024-03-08T02:13:53;99312.03;;;2.45;84.82
79048;BME280;68680;50.764;6.120;2024-03-08T02:16:21;99305.34;;;2.43;83.96
79048;BME280;68680;50.764;6.120;2024-03-08T02:18:47;99309.41;;;2.45;84.33
79048;BME280;68680;50.764;6.120;2024-03-08T02:21:17;99301.59;;;2.37;84.71
79048;BME280;68680;50.764;6.120;2024-03-08T02:23:43;99299.13;;;2.36;84.08
79048;BME280;68680;50.764;6.120;2024-03-08T02:26:09;99302.88;;;2.41;85.11
79048;BME280;68680;50.764;6.120;2024-03-08T02:28:35;99297.47;;;2.35;83.95
79048;BME280;68680;50.764;6.120;2024-03-08T02:31:01;99294.22;;;2.33;85.06
79048;BME280;68680;50.764;6.120;2024-03-08T02:33:28;99293.69;;;2.37;84.80
79048;BME280;68680;50.764;6.120;2024-03-08T02:35:54;99294.03;;;2.34;84.19
79048;BME280;68680;50.764;6.120;2024-03-08T02:38:22;99287.13;;;2.33;84.63
79048;BME280;68680;50.764;6.120;2024-03-08T02:40:51;99286.34;;;2.33;84.25
79048;BME280;68680;50.764;6.120;2024-03-08T02:43:19;99288.31;;;2.31;84.24
79048;BME280;68680;50.764;6.120;2024-03-08T02:45:45;99282.25;;;2.22;85.19
79048;BME280;68680;50.764;6.120;2024-03-08T02:48:12;99282.47;;;2.21;85.25
79048;BME280;68680;50.764;6.120;2024-03-08T02:50:38;99278.03;;;2.21;84.98
79048;BME280;68680;50.764;6.120;2024-03-08T02:53:04;99278.81;;;2.22;85.69
79048;BME280;68680;50.764;6.120;2024-03-08T02:55:32;99281.03;;;2.10;85.99
79048;BME280;68680;50.764;6.120;2024-03-08T02:57:58;99275.44;;;2.13;85.74
79048;BME280;68680;50.764;6.120;2024-03-08T03:00:24;99271.16;;;2.12;85.96
79048;BME280;68680;50.764;6.120;2024-03-08T03:02:49;99276.94;;;2.08;85.85
79048;BME280;68680;50.764;6.120;2024-03-08T03:05:15;99271.09;;;1.97;86.66
79048;BME280;68680;50.764;6.120;2024-03-08T03:07:41;99265.66;;;1.99;86.18
79048;BME280;68680;50.764;6.120;2024-03-08T03:10:08;99265.34;;;1.94;86.92
79048;BME280;68680;50.764;6.120;2024-03-08T03:12:35;99261.91;;;1.93;87.68
79048;BME280;68680;50.764;6.120;2024-03-08T03:15:01;99261.06;;;1.93;86.57
79048;BME280;68680;50.764;6.120;2024-03-08T03:17:27;99254.75;;;1.79;88.05
79048;BME280;68680;50.764;6.120;2024-03-08T03:19:52;99256.41;;;1.80;87.33
79048;BME280;68680;50.764;6.120;2024-03-08T03:22:19;99249.38;;;1.73;88.22
79048;BME280;68680;50.764;6.120;2024-03-08T03:24:45;99250.22;;;1.65;89.01
79048;BME280;68680;50.764;6.120;2024-03-08T03:27:11;99250.72;;;1.69;88.70
79048;BME280;68680;50.764;6.120;2024-03-08T03:29:38;99242.63;;;1.70;87.98
79048;BME280;68680;50.764;6.120;2024-03-08T03:32:04;99245.50;;;1.60;88.71
79048;BME280;68680;50.764;6.120;2024-03-08T03:34:30;99240.22;;;1.60;88.41
79048;BME280;68680;50.764;6.120;2024-03-08T03:36:56;99245.13;;;1.63;89.58
79048;BME280;68680;50.764;6.120;2024-03-08T03:39:21;99244.28;;;1.71;88.90
79048;BME280;68680;50.764;6.120;2024-03-08T03:41:47;99242.41;;;1.57;89.60
79048;BME280;68680;50.764;6.120;2024-03-08T03:44:13;99248.44;;;1.57;89.07
79048;BME280;68680;50.764;6.120;2024-03-08T03:46:43;99240.25;;;1.52;89.12
79048;BME280;68680;50.764;6.120;2024-03-08T03:49:09;99242.84;;;1.60;88.97
79048;BME280;68680;50.764;6.120;2024-03-08T03:51:35;99237.00;;;1.50;89.22
79048;BME280;68680;50.764;6.120;2024-03-08T03:54:00;99238.75;;;1.58;89.80
79048;BME280;68680;50.764;6.120;2024-03-08T03:56:26;99240.44;;;1.51;89.87
79048;BME280;68680;50.764;6.120;2024-03-08T03:58:52;99235.81;;;1.53;90.35
79048;BME280;68680;50.764;6.120;2024-03-08T04:01:18;99235.56;;;1.40;89.30
79048;BME280;68680;50.764;6.120;2024-03-08T04:03:46;99231.63;;;1.36;89.97
79048;BME280;68680;50.764;6.120;2024-03-08T04:06:11;99228.31;;;1.42;89.77
79048;BME280;68680;50.764;6.120;2024-03-08T04:08:37;99222.88;;;1.51;89.53
79048;BME280;68680;50.764;6.120;2024-03-08T04:11:03;99230.56;;;1.53;89.75
79048;BME280;68680;50.764;6.120;2024-03-08T04:13:29;99216.81;;;1.51;88.51
79048;BME280;68680;50.764;6.120;2024-03-08T04:15:55;99210.38;;;1.53;89.44
79048;BME280;68680;50.764;6.120;2024-03-08T04:18:20;99210.22;;;1.47;90.28
79048;BME280;68680;50.764;6.120;2024-03-08T04:20:48;99207.59;;;1.47;90.23
79048;BME280;68680;50.764;6.120;2024-03-08T04:23:13;99209.06;;;1.49;89.55
79048;BME280;68680;50.764;6.120;2024-03-08T04:25:39;99203.81;;;1.49;90.02
79048;BME280;68680;50.764;6.120;2024-03-08T04:28:05;99198.69;;;1.56;90.29
79048;BME280;68680;50.764;6.120;2024-03-08T04:30:31;99202.47;;;1.53;89.99
79048;BME280;68680;50.764;6.120;2024-03-08T04:32:57;99192.50;;;1.49;90.23
79048;BME280;68680;50.764;6.120;2024-03-08T04:35:22;99196.94;;;1.48;90.29
79048;BME280;68680;50.764;6.120;2024-03-08T04:37:49;99191.16;;;1.53;89.52
79048;BME280;68680;50.764;6.120;2024-03-08T04:40:15;99186.41;;;1.48;89.53
79048;BME280;68680;50.764;6.120;2024-03-08T04:42:42;99193.63;;;1.46;89.09
79048;BME280;68680;50.764;6.120;2024-03-08T04:45:09;99190.56;;;1.43;89.46
79048;BME280;68680;50.764;6.120;2024-03-08T04:47:35;99189.88;;;1.49;89.64
79048;BME280;68680;50.764;6.120;2024-03-08T04:50:01;99188.53;;;1.53;89.24
79048;BME280;68680;50.764;6.120;2024-03-08T04:52:26;99184.56;;;1.57;89.32
79048;BME280;68680;50.764;6.120;2024-03-08T04:54:54;99185.19;;;1.59;88.70
79048;BME280;68680;50.764;6.120;2024-03-08T04:57:19;99183.56;;;1.58;89.22
79048;BME280;68680;50.764;6.120;2024-03-08T04:59:45;99181.75;;;1.58;89.55
79048;BME280;68680;50.764;6.120;2024-03-08T05:02:11;99179.78;;;1.60;88.89
79048;BME280;68680;50.764;6.120;2024-03-08T05:04:37;99177.00;;;1.62;88.78
79048;BME280;68680;50.764;6.120;2024-03-08T05:07:02;99176.69;;;1.57;88.44
79048;BME280;68680;50.764;6.120;2024-03-08T05:09:28;99167.03;;;1.49;89.37
79048;BME280;68680;50.764;6.120;2024-03-08T05:11:55;99170.34;;;1.43;90.12
79048;BME280;68680;50.764;6.120;2024-03-08T05:14:21;99170.22;;;1.37;90.87
79048;BME280;68680;50.764;6.120;2024-03-08T05:16:47;99158.13;;;1.28;91.28
79048;BME280;68680;50.764;6.120;2024-03-08T05:19:13;99157.25;;;1.35;90.29
79048;BME280;68680;50.764;6.120;2024-03-08T05:21:39;99160.50;;;1.45;89.23
79048;BME280;68680;50.764;6.120;2024-03-08T05:24:05;99161.63;;;1.51;89.44
79048;BME280;68680;50.764;6.120;2024-03-08T05:26:31;99161.94;;;1.48;89.62
79048;BME280;68680;50.764;6.120;2024-03-08T05:28:59;99161.78;;;1.49;88.60
79048;BME280;68680;50.764;6.120;2024-03-08T05:31:24;99158.34;;;1.49;90.33
79048;BME280;68680;50.764;6.120;2024-03-08T05:33:50;99152.91;;;1.50;89.58
79048;BME280;68680;50.764;6.120;2024-03-08T05:36:16;99154.34;;;1.53;89.72
79048;BME280;68680;50.764;6.120;2024-03-08T05:38:42;99153.03;;;1.57;87.93
79048;BME280;68680;50.764;6.120;2024-03-08T05:41:08;99153.22;;;1.55;88.24
79048;BME280;68680;50.764;6.120;2024-03-08T05:43:34;99158.28;;;1.57;89.27
79048;BME280;68680;50.764;6.120;2024-03-08T05:46:01;99156.47;;;1.57;89.36
79048;BME280;68680;50.764;6.120;2024-03-08T05:48:27;99149.09;;;1.53;89.86
79048;BME280;68680;50.764;6.120;2024-03-08T05:50:52;99144.50;;;1.55;88.73
79048;BME280;68680;50.764;6.120;2024-03-08T05:53:18;99141.34;;;1.59;88.30
79048;BME280;68680;50.764;6.120;2024-03-08T05:55:44;99136.09;;;1.59;88.38
79048;BME280;68680;50.764;6.120;2024-03-08T05:58:09;99126.09;;;1.55;88.77
79048;BME280;68680;50.764;6.120;2024-03-08T06:00:35;99129.84;;;1.60;88.55
79048;BME280;68680;50.764;6.120;2024-03-08T06:03:03;99131.19;;;1.56;88.80
79048;BME280;68680;50.764;6.120;2024-03-08T06:05:28;99131.31;;;1.63;87.71
79048;BME280;68680;50.764;6.120;2024-03-08T06:08:02;99125.00;;;1.72;86.58
79048;BME280;68680;50.764;6.120;2024-03-08T06:10:28;99129.59;;;1.70;86.65
79048;BME280;68680;50.764;6.120;2024-03-08T06:12:54;99134.16;;;1.76;86.79
79048;BME280;68680;50.764;6.120;2024-03-08T06:15:20;99126.28;;;1.76;86.83
79048;BME280;68680;50.764;6.120;2024-03-08T06:17:46;99124.19;;;1.72;87.48
79048;BME280;68680;50.764;6.120;2024-03-08T06:20:13;99119.22;;;1.77;86.81
79048;BME280;68680;50.764;6.120;2024-03-08T06:22:39;99113.41;;;1.81;86.38
79048;BME280;68680;50.764;6.120;2024-03-08T06:25:06;99111.31;;;1.77;86.71
79048;BME280;68680;50.764;6.120;2024-03-08T06:27:32;99101.28;;;1.80;85.70
79048;BME280;68680;50.764;6.120;2024-03-08T06:29:58;99107.44;;;1.87;85.48
79048;BME280;68680;50.764;6.120;2024-03-08T06:32:23;99101.56;;;1.85;86.22
79048;BME280;68680;50.764;6.120;2024-03-08T06:34:49;99096.59;;;1.90;86.56
79048;BME280;68680;50.764;6.120;2024-03-08T06:37:16;99089.59;;;1.83;87.18
79048;BME280;68680;50.764;6.120;2024-03-08T06:39:42;99084.31;;;1.83;86.97
79048;BME280;68680;50.764;6.120;2024-03-08T06:42:08;99086.91;;;1.91;86.04
79048;BME280;68680;50.764;6.120;2024-03-08T06:44:33;99087.34;;;1.94;86.00
79048;BME280;68680;50.764;6.120;2024-03-08T06:46:59;99081.38;;;2.00;85.57
79048;BME280;68680;50.764;6.120;2024-03-08T06:49:25;99082.31;;;2.08;85.27
79048;BME280;68680;50.764;6.120;2024-03-08T06:51:51;99084.78;;;2.09;85.10
79048;BME280;68680;50.764;6.120;2024-03-08T06:54:18;99087.31;;;2.17;84.79
79048;BME280;68680;50.764;6.120;2024-03-08T06:56:43;99095.03;;;2.19;83.75
79048;BME280;68680;50.764;6.120;2024-03-08T06:59:09;99088.88;;;2.26;84.15
79048;BME280;68680;50.764;6.120;2024-03-08T07:01:35;99089.69;;;2.27;83.10
79048;BME280;68680;50.764;6.120;2024-03-08T07:04:01;99095.75;;;2.27;83.55
79048;BME280;68680;50.764;6.120;2024-03-08T07:06:26;99081.53;;;2.36;82.60
79048;BME280;68680;50.764;6.120;2024-03-08T07:08:52;99084.81;;;2.38;82.58
79048;BME280;68680;50.764;6.120;2024-03-08T07:11:19;99081.25;;;2.46;82.65
79048;BME280;68680;50.764;6.120;2024-03-08T07:13:45;99076.91;;;2.53;82.74
79048;BME280;68680;50.764;6.120;2024-03-08T07:16:11;99075.56;;;2.42;82.23
79048;BME280;68680;50.764;6.120;2024-03-08T07:18:37;99070.91;;;2.59;81.63
79048;BME280;68680;50.764;6.120;2024-03-08T07:21:03;99070.91;;;2.59;82.85
79048;BME280;68680;50.764;6.120;2024-03-08T07:23:29;99075.34;;;2.59;82.55
79048;BME280;68680;50.764;6.120;2024-03-08T07:25:55;99060.91;;;2.69;80.93
79048;BME280;68680;50.764;6.120;2024-03-08T07:28:22;99063.47;;;2.77;81.13
79048;BME280;68680;50.764;6.120;2024-03-08T07:30:48;99062.72;;;2.83;81.57
79048;BME280;68680;50.764;6.120;2024-03-08T07:33:13;99057.97;;;2.94;80.20
79048;BME280;68680;50.764;6.120;2024-03-08T07:35:39;99050.72;;;2.96;80.54
79048;BME280;68680;50.764;6.120;2024-03-08T07:38:06;99047.97;;;3.04;79.73
79048;BME280;68680;50.764;6.120;2024-03-08T07:40:35;99040.78;;;3.12;79.34
79048;BME280;68680;50.764;6.120;2024-03-08T07:43:01;99022.75;;;2.95;80.72
79048;BME280;68680;50.764;6.120;2024-03-08T07:45:28;99036.16;;;3.14;79.09
79048;BME280;68680;50.764;6.120;2024-03-08T07:47:54;99031.56;;;3.23;79.02
79048;BME280;68680;50.764;6.120;2024-03-08T07:50:19;99029.81;;;3.30;78.53
79048;BME280;68680;50.764;6.120;2024-03-08T07:52:45;99017.56;;;3.22;78.74
79048;BME280;68680;50.764;6.120;2024-03-08T07:55:11;99014.50;;;3.19;79.32
79048;BME280;68680;50.764;6.120;2024-03-08T07:57:37;99006.78;;;3.39;78.55
79048;BME280;68680;50.764;6.120;2024-03-08T08:00:04;99019.44;;;3.50;77.99
79048;BME280;68680;50.764;6.120;2024-03-08T08:02:31;99004.44;;;3.50;78.27
79048;BME280;68680;50.764;6.120;2024-03-08T08:04:57;99000.53;;;3.67;76.86
79048;BME280;68680;50.764;6.120;2024-03-08T08:07:23;99010.72;;;3.70;77.29
79048;BME280;68680;50.764;6.120;2024-03-08T08:09:49;99012.44;;;3.85;76.68
79048;BME280;68680;50.764;6.120;2024-03-08T08:12:14;99011.81;;;3.83;76.14
79048;BME280;68680;50.764;6.120;2024-03-08T08:14:40;99005.63;;;3.97;75.80
79048;BME280;68680;50.764;6.120;2024-03-08T08:17:06;98993.28;;;4.04;74.45
79048;BME280;68680;50.764;6.120;2024-03-08T08:19:33;98995.56;;;4.07;75.01
79048;BME280;68680;50.764;6.120;2024-03-08T08:21:59;98994.53;;;4.08;74.10
79048;BME280;68680;50.764;6.120;2024-03-08T08:24:25;99004.91;;;4.09;74.71
79048;BME280;68680;50.764;6.120;2024-03-08T08:26:50;98992.63;;;4.23;73.82
79048;BME280;68680;50.764;6.120;2024-03-08T08:29:16;98985.00;;;4.41;73.12
79048;BME280;68680;50.764;6.120;2024-03-08T08:31:42;98977.63;;;4.30;72.62
79048;BME280;68680;50.764;6.120;2024-03-08T08:34:09;98974.81;;;4.38;72.76
79048;BME280;68680;50.764;6.120;2024-03-08T08:36:36;98971.84;;;4.54;71.66
79048;BME280;68680;50.764;6.120;2024-03-08T08:39:02;98963.53;;;4.58;71.22
79048;BME280;68680;50.764;6.120;2024-03-08T08:41:28;98961.09;;;4.63;71.95
79048;BME280;68680;50.764;6.120;2024-03-08T08:43:54;98963.59;;;4.71;71.65
79048;BME280;68680;50.764;6.120;2024-03-08T08:46:20;98952.81;;;4.72;70.79
79048;BME280;68680;50.764;6.120;2024-03-08T08:48:45;98961.16;;;4.76;70.76
79048;BME280;68680;50.764;6.120;2024-03-08T08:51:11;98953.47;;;4.87;70.72
79048;BME280;68680;50.764;6.120;2024-03-08T08:53:39;98954.94;;;5.03;69.97
79048;BME280;68680;50.764;6.120;2024-03-08T08:56:06;98954.75;;;5.11;70.06
79048;BME280;68680;50.764;6.120;2024-03-08T08:58:32;98957.81;;;5.21;70.13
79048;BME280;68680;50.764;6.120;2024-03-08T09:00:57;98953.97;;;5.24;69.78
79048;BME280;68680;50.764;6.120;2024-03-08T09:03:23;98946.63;;;5.32;68.96
79048;BME280;68680;50.764;6.120;2024-03-08T09:05:49;98946.63;;;5.26;69.87
79048;BME280;68680;50.764;6.120;2024-03-08T09:08:15;98946.63;;;5.39;69.35
79048;BME280;68680;50.764;6.120;2024-03-08T09:10:42;98943.19;;;5.38;69.29
79048;BME280;68680;50.764;6.120;2024-03-08T09:13:07;98941.34;;;5.46;68.79
79048;BME280;68680;50.764;6.120;2024-03-08T09:15:33;98936.88;;;5.53;68.24
79048;BME280;68680;50.764;6.120;2024-03-08T09:17:59;98925.28;;;5.47;68.57
79048;BME280;68680;50.764;6.120;2024-03-08T09:20:25;98928.13;;;5.52;67.92
79048;BME280;68680;50.764;6.120;2024-03-08T09:22:50;98919.97;;;5.67;67.76
79048;BME280;68680;50.764;6.120;2024-03-08T09:25:16;98919.75;;;5.75;67.51
79048;BME280;68680;50.764;6.120;2024-03-08T09:27:43;98909.38;;;5.93;66.94
79048;BME280;68680;50.764;6.120;2024-03-08T09:30:10;98914.03;;;6.11;66.01
79048;BME280;68680;50.764;6.120;2024-03-08T09:32:36;98901.38;;;6.13;65.98
79048;BME280;68680;50.764;6.120;2024-03-08T09:35:02;98908.69;;;6.17;65.80
79048;BME280;68680;50.764;6.120;2024-03-08T09:37:28;98903.19;;;6.19;65.67
79048;BME280;68680;50.764;6.120;2024-03-08T09:39:54;98896.47;;;6.23;65.77
79048;BME280;68680;50.764;6.120;2024-03-08T09:42:20;98891.34;;;6.28;65.59
79048;BME280;68680;50.764;6.120;2024-03-08T09:44:47;98894.41;;;6.25;65.51
79048;BME280;68680;50.764;6.120;2024-03-08T09:47:14;98894.16;;;6.40;64.72
79048;BME280;68680;50.764;6.120;2024-03-08T09:49:40;98889.75;;;6.58;64.78
79048;BME280;68680;50.764;6.120;2024-03-08T09:52:07;98890.94;;;6.69;63.70
79048;BME280;68680;50.764;6.120;2024-03-08T09:54:33;98879.31;;;6.70;62.92
79048;BME280;68680;50.764;6.120;2024-03-08T09:56:59;98880.25;;;6.82;64.40
79048;BME280;68680;50.764;6.120;2024-03-08T09:59:24;98879.09;;;7.03;62.54
79048;BME280;68680;50.764;6.120;2024-03-08T10:01:52;98869.16;;;7.23;62.67
79048;BME280;68680;50.764;6.120;2024-03-08T10:04:17;98870.00;;;7.17;61.09
79048;BME280;68680;50.764;6.120;2024-03-08T10:06:43;98857.63;;;7.11;61.18
79048;BME280;68680;50.764;6.120;2024-03-08T10:09:09;98865.69;;;7.23;61.84
79048;BME280;68680;50.764;6.120;2024-03-08T10:11:35;98864.09;;;7.40;61.03
79048;BME280;68680;50.764;6.120;2024-03-08T10:14:01;98855.28;;;7.46;61.04
79048;BME280;68680;50.764;6.120;2024-03-08T10:16:27;98857.66;;;7.54;60.28
79048;BME280;68680;50.764;6.120;2024-03-08T10:18:56;98856.88;;;7.72;59.69
79048;BME280;68680;50.764;6.120;2024-03-08T10:21:22;98858.78;;;7.65;60.42
79048;BME280;68680;50.764;6.120;2024-03-08T10:23:48;98850.84;;;7.83;60.17
79048;BME280;68680;50.764;6.120;2024-03-08T10:26:16;98846.19;;;7.97;59.06
79048;BME280;68680;50.764;6.120;2024-03-08T10:28:42;98846.56;;;8.00;59.04
79048;BME280;68680;50.764;6.120;2024-03-08T10:31:09;98846.63;;;8.12;57.96
79048;BME280;68680;50.764;6.120;2024-03-08T10:33:35;98835.31;;;8.16;58.04
79048;BME280;68680;50.764;6.120;2024-03-08T10:36:03;98836.94;;;8.17;56.52
79048;BME280;68680;50.764;6.120;2024-03-08T10:38:31;98832.66;;;8.16;56.22
79048;BME280;68680;50.764;6.120;2024-03-08T10:40:57;98838.72;;;8.23;56.42
79048;BME280;68680;50.764;6.120;2024-03-08T10:43:25;98828.03;;;8.30;54.54
79048;BME280;68680;50.764;6.120;2024-03-08T10:46:02;98821.28;;;8.46;54.75
79048;BME280;68680;50.764;6.120;2024-03-08T10:48:31;98823.41;;;8.55;54.93
79048;BME280;68680;50.764;6.120;2024-03-08T10:50:59;98823.06;;;8.63;55.99
79048;BME280;68680;50.764;6.120;2024-03-08T10:53:27;98815.94;;;8.76;53.97
79048;BME280;68680;50.764;6.120;2024-03-08T10:55:54;98816.03;;;8.69;53.68
79048;BME280;68680;50.764;6.120;2024-03-08T10:58:26;98810.31;;;8.84;54.07
79048;BME280;68680;50.764;6.120;2024-03-08T11:00:52;98794.50;;;9.00;53.91
79048;BME280;68680;50.764;6.120;2024-03-08T11:03:44;98787.88;;;8.91;52.67
79048;BME280;68680;50.764;6.120;2024-03-08T11:06:15;98792.97;;;9.04;51.98
79048;BME280;68680;50.764;6.120;2024-03-08T11:08:43;98787.44;;;9.18;52.95
79048;BME280;68680;50.764;6.120;2024-03-08T11:11:28;98787.91;;;9.26;52.33
79048;BME280;68680;50.764;6.120;2024-03-08T11:13:54;98777.84;;;9.28;53.68
79048;BME280;68680;50.764;6.120;2024-03-08T11:16:39;98771.94;;;9.38;53.29
79048;BME280;68680;50.764;6.120;2024-03-08T11:19:23;98765.81;;;9.49;50.58
79048;BME280;68680;50.764;6.120;2024-03-08T11:22:01;98769.03;;;9.28;49.34
79048;BME280;68680;50.764;6.120;2024-03-08T11:24:38;98767.28;;;9.45;50.99
79048;BME280;68680;50.764;6.120;2024-03-08T11:27:04;98761.97;;;9.57;51.67
79048;BME280;68680;50.764;6.120;2024-03-08T11:29:35;98757.13;;;9.54;50.31
79048;BME280;68680;50.764;6.120;2024-03-08T11:32:05;98756.03;;;9.78;49.71
79048;BME280;68680;50.764;6.120;2024-03-08T11:34:32;98748.03;;;9.78;50.13
79048;BME280;68680;50.764;6.120;2024-03-08T11:36:58;98747.66;;;9.86;49.34
79048;BME280;68680;50.764;6.120;2024-03-08T11:39:25;98757.16;;;9.82;49.22
79048;BME280;68680;50.764;6.120;2024-03-08T11:41:52;98741.59;;;9.90;49.50
79048;BME280;68680;50.764;6.120;2024-03-08T11:44:18;98752.94;;;9.98;50.08
79048;BME280;68680;50.764;6.120;2024-03-08T11:46:44;98743.78;;;10.05;50.82
79048;BME280;68680;50.764;6.120;2024-03-08T11:49:09;98735.19;;;10.03;50.38
79048;BME280;68680;50.764;6.120;2024-03-08T11:51:35;98737.41;;;10.06;48.79
79048;BME280;68680;50.764;6.120;2024-03-08T11:54:01;98737.50;;;10.11;49.92
79048;BME280;68680;50.764;6.120;2024-03-08T11:56:27;98722.22;;;10.18;48.34
79048;BME280;68680;50.764;6.120;2024-03-08T11:58:56;98719.78;;;10.17;48.20
79048;BME280;68680;50.764;6.120;2024-03-08T12:01:22;98713.16;;;10.08;48.52
79048;BME280;68680;50.764;6.120;2024-03-08T12:03:53;98711.94;;;9.99;48.21
79048;BME280;68680;50.764;6.120;2024-03-08T12:06:19;98714.06;;;10.13;48.55
79048;BME280;68680;50.764;6.120;2024-03-08T12:08:46;98711.56;;;10.18;47.94
79048;BME280;68680;50.764;6.120;2024-03-08T12:11:12;98703.81;;;10.34;48.40
79048;BME280;68680;50.764;6.120;2024-03-08T12:13:38;98708.34;;;10.50;48.43
79048;BME280;68680;50.764;6.120;2024-03-08T12:16:06;98696.56;;;10.46;50.30
79048;BME280;68680;50.764;6.120;2024-03-08T12:18:35;98702.31;;;10.71;48.14
79048;BME280;68680;50.764;6.120;2024-03-08T12:21:05;98697.38;;;10.63;48.03
79048;BME280;68680;50.764;6.120;2024-03-08T12:23:30;98693.66;;;10.64;46.88
79048;BME280;68680;50.764;6.120;2024-03-08T12:25:56;98690.91;;;10.59;47.16
79048;BME280;68680;50.764;6.120;2024-03-08T12:28:22;98681.25;;;10.91;47.16
79048;BME280;68680;50.764;6.120;2024-03-08T12:30:50;98679.72;;;10.95;47.33
79048;BME280;68680;50.764;6.120;2024-03-08T12:33:17;98674.31;;;10.90;45.96
79048;BME280;68680;50.764;6.120;2024-03-08T12:35:51;98668.25;;;10.78;45.76
79048;BME280;68680;50.764;6.120;2024-03-08T12:38:17;98671.34;;;10.87;46.57
79048;BME280;68680;50.764;6.120;2024-03-08T12:40:42;98678.19;;;10.99;45.68
79048;BME280;68680;50.764;6.120;2024-03-08T12:43:08;98659.84;;;10.86;45.73
79048;BME280;68680;50.764;6.120;2024-03-08T12:45:34;98667.06;;;11.07;46.23
79048;BME280;68680;50.764;6.120;2024-03-08T12:48:00;98663.34;;;11.08;45.53
79048;BME280;68680;50.764;6.120;2024-03-08T12:50:27;98658.91;;;11.14;45.42
79048;BME280;68680;50.764;6.120;2024-03-08T12:52:52;98666.38;;;11.12;47.16
79048;BME280;68680;50.764;6.120;2024-03-08T12:55:18;98660.81;;;11.19;45.98
79048;BME280;68680;50.764;6.120;2024-03-08T12:57:44;98650.84;;;11.31;45.87
79048;BME280;68680;50.764;6.120;2024-03-08T13:00:11;98647.81;;;11.22;45.24
79048;BME280;68680;50.764;6.120;2024-03-08T13:02:37;98640.22;;;11.36;45.90
79048;BME280;68680;50.764;6.120;2024-03-08T13:05:04;98634.44;;;11.44;45.26
79048;BME280;68680;50.764;6.120;2024-03-08T13:07:31;98638.56;;;11.51;45.13